Time;durP1;ratioP1;P1;durP2;ratioP2;P2;SDS_P1;SDS_P2;PMS_P1;PMS_P2;Temp;Humidity;BMP_temperature;BMP_pressure;BME280_temperature;BME280_humidity;BME280_pressure;Samples;Min_cycle;Max_cycle;Signal;HPM_P1;HPM_P2
2023/09/24 00:01:36;;;;;;;0.70;0.30;;;;;;;12.63;92.25;102384.00;5053748;27;96762;-27
2023/09/24 00:04:02;;;;;;;0.98;0.55;;;;;;;12.61;92.74;102380.47;5052738;27;99372;-27
2023/09/24 00:06:27;;;;;;;1.50;0.38;;;;;;;12.67;92.56;102385.63;5034603;27;100927;-27
2023/09/24 00:08:52;;;;;;;1.40;0.52;;;;;;;12.63;92.60;102376.75;5052333;27;96661;-27
2023/09/24 00:11:18;;;;;;;4.18;0.60;;;;;;;12.60;92.16;102376.00;5053211;27;97096;-27
2023/09/24 00:13:43;;;;;;;0.90;0.50;;;;;;;12.58;92.50;102367.03;5052623;27;97284;-27
2023/09/24 00:16:09;;;;;;;0.40;0.30;;;;;;;12.63;92.63;102378.56;5052362;27;97835;-26
2023/09/24 00:18:35;;;;;;;0.80;0.45;;;;;;;12.65;92.57;102382.97;5052991;27;96542;-27
2023/09/24 00:21:01;;;;;;;0.85;0.60;;;;;;;12.60;92.30;102379.59;5034400;27;96880;-27
2023/09/24 00:23:28;;;;;;;2.30;0.63;;;;;;;12.54;92.71;102379.88;5052523;27;97952;-27
2023/09/24 00:25:55;;;;;;;2.40;0.50;;;;;;;12.55;92.16;102384.34;5034726;27;101101;-27
2023/09/24 00:28:21;;;;;;;2.10;0.70;;;;;;;12.53;92.38;102386.25;5034303;27;96700;-27
2023/09/24 00:30:48;;;;;;;0.50;0.32;;;;;;;12.55;92.08;102395.22;5034462;27;96867;-27
2023/09/24 00:33:13;;;;;;;0.32;0.30;;;;;;;12.52;91.62;102393.53;5033685;27;99055;-27
2023/09/24 00:35:39;;;;;;;2.92;0.60;;;;;;;12.46;91.85;102388.38;5052234;27;98461;-27
2023/09/24 00:38:04;;;;;;;1.08;0.55;;;;;;;12.50;91.75;102390.00;5052332;27;96565;-27
2023/09/24 00:40:29;;;;;;;1.88;0.45;;;;;;;12.49;92.16;102385.53;5052597;27;96880;-26
2023/09/24 00:42:55;;;;;;;4.50;0.40;;;;;;;12.48;92.03;102382.88;5052432;27;97658;-27
2023/09/24 00:45:25;;;;;;;2.78;0.52;;;;;;;12.47;91.94;102392.00;5052030;27;98331;-27
2023/09/24 00:47:55;;;;;;;1.63;0.30;;;;;;;12.42;91.70;102399.44;5034508;27;96694;-26
2023/09/24 00:50:21;;;;;;;2.00;0.52;;;;;;;12.42;92.12;102394.91;5034359;27;96889;-27
2023/09/24 00:52:49;;;;;;;0.88;0.38;;;;;;;12.41;91.84;102400.41;5033856;27;100995;-27
2023/09/24 00:55:16;;;;;;;0.98;0.32;;;;;;;12.38;92.05;102400.53;5033775;27;101342;-26
2023/09/24 00:57:43;;;;;;;0.98;0.30;;;;;;;12.28;91.47;102387.38;5033578;27;97231;-27
2023/09/24 01:00:15;;;;;;;0.75;0.40;;;;;;;12.36;91.68;102406.03;5034112;27;96830;-26
2023/09/24 01:02:41;;;;;;;0.20;0.20;;;;;;;12.36;91.73;102405.16;5052068;27;99624;-26
2023/09/24 01:05:10;;;;;;;0.35;0.25;;;;;;;12.37;92.13;102409.63;5051712;27;99465;-27
2023/09/24 01:07:37;;;;;;;1.42;0.50;;;;;;;12.34;91.93;102402.50;5033856;27;96584;-27
2023/09/24 01:10:04;;;;;;;0.85;0.50;;;;;;;12.28;91.39;102397.34;5033722;27;96784;-27
2023/09/24 01:12:29;;;;;;;1.50;0.43;;;;;;;12.32;91.65;102408.03;5033691;27;100882;-27
2023/09/24 01:14:57;;;;;;;1.35;0.38;;;;;;;12.29;92.05;102401.81;5052320;27;98129;-27
2023/09/24 01:17:26;;;;;;;2.40;0.35;;;;;;;12.28;91.71;102405.50;5033667;27;96485;-27
2023/09/24 01:19:55;;;;;;;2.90;0.65;;;;;;;12.22;91.73;102398.47;5052530;27;96836;-27
2023/09/24 01:22:21;;;;;;;1.15;0.60;;;;;;;12.22;91.40;102400.31;5033189;27;101096;-27
2023/09/24 01:24:47;;;;;;;2.90;1.23;;;;;;;12.17;91.91;102396.94;5051770;27;99034;-27
2023/09/24 01:27:13;;;;;;;8.23;2.58;;;;;;;12.22;91.95;102408.47;5055666;27;96616;-27
2023/09/24 01:29:39;;;;;;;7.15;3.25;;;;;;;12.20;91.85;102394.94;5037207;27;96876;-27
2023/09/24 01:32:06;;;;;;;10.82;3.97;;;;;;;12.18;91.63;102396.88;5055316;27;97954;-28
2023/09/24 01:34:32;;;;;;;13.30;4.93;;;;;;;12.20;91.51;102394.94;5036527;27;100746;-27
2023/09/24 01:36:58;;;;;;;12.25;5.30;;;;;;;12.19;91.63;102392.31;5036963;27;97415;-27
2023/09/24 01:39:27;;;;;;;15.15;5.57;;;;;;;12.23;91.70;102402.09;5037316;27;96805;-27
2023/09/24 01:41:52;;;;;;;14.55;5.47;;;;;;;12.19;91.33;102395.03;5036732;27;101356;-27
2023/09/24 01:44:21;;;;;;;17.27;8.50;;;;;;;12.23;91.67;102388.53;5055404;27;97292;-27
2023/09/24 01:46:47;;;;;;;18.23;7.57;;;;;;;12.20;91.40;102394.94;5053530;27;96679;-26
2023/09/24 01:49:13;;;;;;;27.23;10.25;;;;;;;12.20;91.20;102396.78;5036799;27;97545;-27
2023/09/24 01:51:39;;;;;;;24.58;9.57;;;;;;;12.21;91.33;102401.28;5036604;27;101388;-27
2023/09/24 01:54:05;;;;;;;32.78;10.32;;;;;;;12.19;91.35;102403.19;5055211;27;97981;-27
2023/09/24 01:56:30;;;;;;;17.92;9.05;;;;;;;12.13;90.89;102401.59;5055221;27;96491;-27
2023/09/24 01:58:56;;;;;;;15.40;7.72;;;;;;;12.12;91.38;102399.84;5054939;27;96976;-27
2023/09/24 02:01:22;;;;;;;15.88;7.45;;;;;;;12.19;91.78;102411.34;5054809;27;97502;-27
2023/09/24 02:03:48;;;;;;;16.08;6.90;;;;;;;12.14;91.60;102397.06;5036707;27;98958;-27
2023/09/24 02:06:14;;;;;;;13.05;6.75;;;;;;;12.16;91.56;102415.06;5036519;27;96614;-27
2023/09/24 02:08:40;;;;;;;24.17;12.35;;;;;;;12.16;91.41;102419.63;5036438;27;96921;-27
2023/09/24 02:11:05;;;;;;;18.33;10.43;;;;;;;12.17;91.73;102432.25;5054095;27;99142;-28
2023/09/24 02:13:31;;;;;;;46.28;23.35;;;;;;;12.10;91.75;102412.59;5054720;27;97881;-27
2023/09/24 02:15:56;;;;;;;51.42;24.33;;;;;;;12.13;91.65;102420.59;5054746;27;96684;-27
2023/09/24 02:18:22;;;;;;;46.22;21.65;;;;;;;12.13;91.61;102420.59;5054652;27;96800;-28
2023/09/24 02:20:48;;;;;;;48.88;23.52;;;;;;;12.09;91.62;102408.13;5036195;27;100799;-27
2023/09/24 02:23:14;;;;;;;50.25;23.95;;;;;;;12.10;91.76;102410.75;5054727;27;97928;-26
2023/09/24 02:25:39;;;;;;;38.85;19.52;;;;;;;12.06;91.72;102405.53;5054851;27;96522;-27
2023/09/24 02:28:05;;;;;;;35.00;17.08;;;;;;;12.05;92.01;102412.78;5055138;27;96731;-27
2023/09/24 02:30:31;;;;;;;22.58;11.93;;;;;;;12.06;91.90;102405.53;5054372;27;97827;-27
2023/09/24 02:32:57;;;;;;;14.27;7.82;;;;;;;11.96;91.67;102402.31;5036076;27;100647;-28
2023/09/24 02:35:24;;;;;;;10.10;6.38;;;;;;;12.01;91.91;102410.28;5035271;27;96923;-27
2023/09/24 02:37:51;;;;;;;8.60;4.55;;;;;;;12.00;91.94;102408.53;5053936;27;96749;-27
2023/09/24 02:40:23;;;;;;;5.88;3.75;;;;;;;11.96;91.97;102402.31;5035865;27;100907;-27
2023/09/24 02:42:59;;;;;;;6.38;2.80;;;;;;;11.96;91.80;102407.75;5054072;27;99476;-28
2023/09/24 02:45:26;;;;;;;6.10;2.58;;;;;;;11.91;92.16;102404.34;5054216;27;96856;-27
2023/09/24 02:47:52;;;;;;;6.05;3.08;;;;;;;11.88;92.08;102412.63;5035939;27;96607;-27
2023/09/24 02:50:22;;;;;;;4.85;2.50;;;;;;;11.84;91.85;102411.81;5054231;27;98040;-27
2023/09/24 02:52:48;;;;;;;6.53;2.03;;;;;;;11.84;92.22;102411.81;5036096;27;101044;-29
2023/09/24 02:55:15;;;;;;;4.40;2.42;;;;;;;11.82;92.49;102410.13;5035851;27;96672;-28
2023/09/24 02:57:44;;;;;;;3.03;1.88;;;;;;;11.85;92.47;102415.44;5035727;27;96847;-26
2023/09/24 03:00:29;;;;;;;2.85;1.75;;;;;;;11.80;92.27;102407.50;5053340;27;98085;-27
2023/09/24 03:02:59;;;;;;;3.97;1.65;;;;;;;11.81;92.40;102425.53;5054318;27;98368;-27
2023/09/24 03:05:26;;;;;;;2.17;1.42;;;;;;;11.79;92.61;102424.72;5053667;27;96887;-27
2023/09/24 03:07:53;;;;;;;1.90;1.10;;;;;;;11.73;92.48;102415.94;5053806;27;96697;-27
2023/09/24 03:10:19;;;;;;;2.83;1.58;;;;;;;11.74;92.56;102429.47;5053625;27;99706;-27
2023/09/24 03:12:46;;;;;;;3.03;1.48;;;;;;;11.66;92.79;102420.75;5035595;27;99214;-27
2023/09/24 03:15:11;;;;;;;2.75;1.38;;;;;;;11.69;92.54;102431.47;5035410;27;96532;-27
2023/09/24 03:17:38;;;;;;;3.22;1.45;;;;;;;11.65;92.53;102428.00;5054477;27;96683;-27
2023/09/24 03:20:14;;;;;;;2.03;1.15;;;;;;;11.62;92.77;102421.81;5035478;27;101086;-27
2023/09/24 03:22:39;;;;;;;2.47;1.50;;;;;;;11.65;92.84;102428.00;5035092;27;101090;-27
2023/09/24 03:25:06;;;;;;;1.85;1.27;;;;;;;11.63;92.73;102429.91;5053409;27;96520;-27
2023/09/24 03:27:32;;;;;;;5.18;1.60;;;;;;;11.61;92.78;102430.91;5035214;27;96967;-27
2023/09/24 03:29:57;;;;;;;2.45;1.20;;;;;;;11.55;92.80;102429.31;5053727;27;97856;-27
2023/09/24 03:32:22;;;;;;;3.55;1.58;;;;;;;11.54;92.74;102441.13;5053648;27;97359;-27
2023/09/24 03:34:48;;;;;;;2.95;1.30;;;;;;;11.56;92.72;102451.91;5053578;27;96534;-27
2023/09/24 03:37:14;;;;;;;1.48;1.08;;;;;;;11.54;92.81;102443.84;5053361;27;96817;-27
2023/09/24 03:39:39;;;;;;;2.10;1.30;;;;;;;11.55;93.00;102453.75;5035093;27;100827;-27
2023/09/24 03:42:05;;;;;;;1.70;0.95;;;;;;;11.52;93.08;102444.84;5053737;27;97354;-26
2023/09/24 03:44:30;;;;;;;3.30;1.20;;;;;;;11.49;93.13;102451.28;5053630;27;96672;-27
2023/09/24 03:46:55;;;;;;;1.98;1.17;;;;;;;11.47;92.88;102450.47;5053025;27;96841;-27
2023/09/24 03:49:21;;;;;;;2.55;1.10;;;;;;;11.50;92.80;102463.03;5051721;27;97306;-27
2023/09/24 03:51:46;;;;;;;1.52;1.08;;;;;;;11.46;93.07;102456.81;5052858;27;99156;-27
2023/09/24 03:54:11;;;;;;;6.05;1.85;;;;;;;11.45;92.87;102471.34;5053507;27;96477;-27
2023/09/24 03:56:37;;;;;;;3.42;1.40;;;;;;;11.40;93.20;102466.09;5053027;27;96888;-27
2023/09/24 03:59:02;;;;;;;4.05;1.08;;;;;;;11.41;93.19;102467.84;5053187;27;97393;-27
2023/09/24 04:01:27;;;;;;;2.80;1.05;;;;;;;11.37;93.19;102458.09;5053212;27;98511;-27
2023/09/24 04:03:53;;;;;;;4.35;1.35;;;;;;;11.40;92.56;102473.34;5052904;27;96749;-27
2023/09/24 04:06:18;;;;;;;3.58;1.70;;;;;;;11.39;93.13;102469.75;5053894;27;96854;-27
2023/09/24 04:08:43;;;;;;;2.47;1.50;;;;;;;11.35;93.01;102459.97;5053258;27;97340;-27
2023/09/24 04:11:12;;;;;;;2.75;1.60;;;;;;;11.35;93.19;102461.81;5053188;27;97294;-27
2023/09/24 04:13:38;;;;;;;3.63;1.83;;;;;;;11.36;92.99;102471.69;5034140;27;97447;-27
2023/09/24 04:16:12;;;;;;;4.50;1.40;;;;;;;11.36;93.01;102475.28;5034507;27;96909;-27
2023/09/24 04:18:41;;;;;;;3.30;1.90;;;;;;;11.35;93.06;102478.97;5034302;27;100822;-27
2023/09/24 04:21:19;;;;;;;3.65;1.58;;;;;;;11.34;93.31;102476.28;5052711;27;97926;-27
2023/09/24 04:23:45;;;;;;;3.08;1.42;;;;;;;11.28;93.02;102477.44;5034464;27;96643;-27
2023/09/24 04:26:21;;;;;;;2.50;1.58;;;;;;;11.32;93.06;102480.88;5034541;27;96814;-27
2023/09/24 04:28:49;;;;;;;4.60;1.85;;;;;;;11.29;93.01;102476.47;5034388;27;100771;-27
2023/09/24 04:31:16;;;;;;;4.38;1.52;;;;;;;11.30;93.24;102480.97;5052717;27;97792;-27
2023/09/24 04:33:42;;;;;;;3.95;1.77;;;;;;;11.29;93.38;102481.91;5034068;27;96768;-27
2023/09/24 04:36:09;;;;;;;3.05;1.73;;;;;;;11.25;93.13;102472.13;5052828;27;96871;-26
2023/09/24 04:38:34;;;;;;;3.22;1.38;;;;;;;11.22;93.23;102477.66;5051994;27;97080;-27
2023/09/24 04:41:00;;;;;;;3.05;1.65;;;;;;;11.18;93.11;102467.88;5052501;27;97370;-27
2023/09/24 04:43:26;;;;;;;3.20;1.60;;;;;;;11.16;93.15;102469.75;5052357;27;96655;-27
2023/09/24 04:45:51;;;;;;;2.25;1.40;;;;;;;11.15;93.25;102470.69;5051890;27;96746;-26
2023/09/24 04:48:16;;;;;;;3.17;1.50;;;;;;;11.15;93.11;102477.00;5052366;27;97432;-28
2023/09/24 04:50:42;;;;;;;3.22;1.52;;;;;;;11.09;92.83;102474.53;5052755;27;97326;-27
2023/09/24 04:53:07;;;;;;;4.53;1.83;;;;;;;11.08;93.26;102480.00;5052523;27;96501;-27
2023/09/24 04:55:33;;;;;;;2.90;1.52;;;;;;;11.13;93.15;102495.19;5052808;27;96972;-27
2023/09/24 04:57:59;;;;;;;3.03;1.50;;;;;;;11.12;93.23;102487.09;5034050;27;101169;-27
2023/09/24 05:00:25;;;;;;;2.55;1.50;;;;;;;11.10;93.46;102491.69;5034220;27;100709;-27
2023/09/24 05:02:50;;;;;;;2.38;1.42;;;;;;;11.10;93.15;102488.97;5055578;27;96593;-27
2023/09/24 05:05:16;;;;;;;3.83;2.17;;;;;;;11.01;93.15;102476.63;5055768;27;96809;-27
2023/09/24 05:07:41;;;;;;;4.10;2.00;;;;;;;11.04;93.46;102488.25;5055804;27;98051;-27
2023/09/24 05:10:08;;;;;;;3.55;1.83;;;;;;;11.06;93.31;102493.63;5055891;27;97652;-27
2023/09/24 05:12:33;;;;;;;3.15;1.70;;;;;;;11.08;93.39;102488.13;5056167;27;96586;-27
2023/09/24 05:14:58;;;;;;;2.78;1.60;;;;;;;11.05;93.11;102494.56;5055680;27;96770;-27
2023/09/24 05:17:24;;;;;;;3.20;1.45;;;;;;;11.00;93.20;102493.84;5055793;27;97968;-27
2023/09/24 05:19:49;;;;;;;5.28;1.67;;;;;;;10.92;93.18;102488.72;5055865;27;99186;-27
2023/09/24 05:22:15;;;;;;;6.13;1.65;;;;;;;10.98;93.68;102498.44;5055811;27;96498;-28
2023/09/24 05:24:41;;;;;;;5.68;1.80;;;;;;;11.02;93.44;102500.97;5055875;27;96806;-27
2023/09/24 05:27:06;;;;;;;3.28;1.67;;;;;;;10.98;93.24;102499.31;5036600;27;100867;-26
2023/09/24 05:29:32;;;;;;;4.75;1.80;;;;;;;11.01;93.37;102506.44;5055175;27;99482;-26
2023/09/24 05:32:00;;;;;;;5.28;1.40;;;;;;;10.99;93.46;102501.09;5055771;27;96571;-27
2023/09/24 05:34:25;;;;;;;2.95;1.60;;;;;;;10.99;93.58;102495.69;5055269;27;96751;-28
2023/09/24 05:36:51;;;;;;;2.90;1.77;;;;;;;10.98;93.45;102507.44;5055000;27;99491;-27
2023/09/24 05:39:16;;;;;;;3.33;1.65;;;;;;;10.94;93.54;102505.81;5055408;27;97951;-26
2023/09/24 05:41:42;;;;;;;1.88;1.33;;;;;;;10.93;93.49;102505.84;5055481;27;97699;-27
2023/09/24 05:44:07;;;;;;;4.03;1.70;;;;;;;10.91;93.13;102499.59;5055463;27;96732;-28
2023/09/24 05:46:33;;;;;;;2.72;1.73;;;;;;;10.97;93.20;102518.38;5036524;27;98786;-26
2023/09/24 05:48:59;;;;;;;2.97;1.75;;;;;;;10.93;93.16;102520.28;5055251;27;97737;-27
2023/09/24 05:51:27;;;;;;;9.10;2.33;;;;;;;10.89;93.08;102515.91;5036278;27;97623;-27
2023/09/24 05:53:53;;;;;;;6.85;1.80;;;;;;;10.93;93.16;102516.69;5055379;27;96591;-27
2023/09/24 05:56:19;;;;;;;2.63;1.40;;;;;;;10.89;93.23;102515.91;5036473;27;101565;-27
2023/09/24 05:58:44;;;;;;;3.05;1.48;;;;;;;10.93;93.18;102516.69;5054977;27;97426;-27
2023/09/24 06:01:16;;;;;;;1.85;1.35;;;;;;;11.00;93.15;102524.56;5036812;27;96606;-28
2023/09/24 06:03:41;;;;;;;;;;;;;;;11.01;92.88;102520.91;5037046;27;96892;-27
2023/09/24 06:06:10;;;;;;;2.70;1.30;;;;;;;10.97;92.59;102519.25;5055158;27;97888;-26
2023/09/24 06:08:37;;;;;;;3.85;1.17;;;;;;;10.97;92.61;102504.81;5036834;27;100829;-26
2023/09/24 06:11:03;;;;;;;2.75;1.35;;;;;;;10.99;93.14;102511.94;5036608;27;96683;-28
2023/09/24 06:13:28;;;;;;;2.67;1.33;;;;;;;11.02;93.00;102528.09;5053534;27;96884;-28
2023/09/24 06:16:01;;;;;;;2.22;1.38;;;;;;;11.05;92.93;102533.41;5054297;27;98021;-27
2023/09/24 06:18:26;;;;;;;2.22;1.38;;;;;;;11.07;92.84;102541.50;5054635;27;99579;-27
2023/09/24 06:20:52;;;;;;;2.75;1.52;;;;;;;11.07;92.33;102540.63;5054667;27;96459;-27
2023/09/24 06:23:17;;;;;;;1.92;1.20;;;;;;;11.06;92.24;102534.31;5054848;27;96868;-28
2023/09/24 06:25:43;;;;;;;2.38;1.33;;;;;;;11.03;92.64;102529.84;5054503;27;98254;-27
2023/09/24 06:28:11;;;;;;;1.80;1.38;;;;;;;11.07;92.69;102541.50;5054644;27;97337;-27
2023/09/24 06:30:39;;;;;;;1.45;1.17;;;;;;;11.08;92.69;102542.38;5036377;27;96759;-26
2023/09/24 06:33:05;;;;;;;1.05;0.88;;;;;;;11.13;92.42;102546.72;5055078;27;96764;-27
2023/09/24 06:35:33;;;;;;;4.13;1.75;;;;;;;11.12;92.27;102535.91;5035652;27;101115;-27
2023/09/24 06:37:59;;;;;;;1.92;1.38;;;;;;;11.08;92.48;102523.38;5036103;27;101043;-27
2023/09/24 06:40:24;;;;;;;4.60;1.50;;;;;;;11.18;92.57;102539.28;5053981;27;96657;-27
2023/09/24 06:42:49;;;;;;;3.78;1.75;;;;;;;11.27;92.50;102546.16;5054204;27;96851;-26
2023/09/24 06:45:15;;;;;;;3.83;1.50;;;;;;;11.29;92.24;102541.56;5053974;27;97884;-27
2023/09/24 06:47:40;;;;;;;2.40;1.50;;;;;;;11.32;92.18;102536.06;5054348;27;97920;-28
2023/09/24 06:50:06;;;;;;;2.60;1.13;;;;;;;11.42;92.08;102536.59;5054325;27;96543;-28
2023/09/24 06:52:32;;;;;;;4.25;1.42;;;;;;;11.43;91.79;102530.22;5054268;27;96824;-26
2023/09/24 06:54:58;;;;;;;2.45;1.70;;;;;;;11.56;91.21;102538.75;5053774;27;100058;-26
2023/09/24 06:57:24;;;;;;;3.08;1.60;;;;;;;11.69;90.91;102546.38;5036177;27;101101;-28
2023/09/24 06:59:49;;;;;;;2.55;1.40;;;;;;;11.84;90.92;102547.59;5054377;27;97194;-27
2023/09/24 07:02:15;;;;;;;3.90;1.50;;;;;;;11.93;90.15;102545.50;5053953;27;96804;-27
2023/09/24 07:04:40;;;;;;;3.88;1.65;;;;;;;12.11;89.60;102552.91;5053271;27;97771;-27
2023/09/24 07:07:07;;;;;;;3.33;1.55;;;;;;;12.27;89.25;102554.03;5054054;27;97377;-27
2023/09/24 07:09:33;;;;;;;1.80;1.17;;;;;;;12.28;88.13;102553.09;5035561;27;96799;-27
2023/09/24 07:11:58;;;;;;;3.83;1.60;;;;;;;12.49;88.50;102564.91;5053977;27;96854;-27
2023/09/24 07:14:24;;;;;;;4.53;1.90;;;;;;;12.67;87.86;102563.22;5053694;27;99302;-27
2023/09/24 07:16:49;;;;;;;3.35;1.40;;;;;;;12.80;86.72;102557.25;5053992;27;97379;-27
2023/09/24 07:19:15;;;;;;;5.40;1.30;;;;;;;12.93;85.95;102567.53;5053661;27;96555;-27
2023/09/24 07:21:40;;;;;;;2.00;1.45;;;;;;;13.03;85.28;102565.31;5054453;27;96763;-27
2023/09/24 07:24:06;;;;;;;3.65;1.58;;;;;;;13.20;84.82;102569.97;5052849;27;99433;-27
2023/09/24 07:26:32;;;;;;;3.13;1.42;;;;;;;13.36;83.92;102576.53;5035238;27;100853;-27
2023/09/24 07:28:57;;;;;;;3.30;1.55;;;;;;;13.51;83.65;102576.78;5034898;27;97041;-27
2023/09/24 07:31:24;;;;;;;3.28;1.25;;;;;;;13.57;82.64;102576.53;5053487;27;96856;-27
2023/09/24 07:33:51;;;;;;;2.40;1.40;;;;;;;13.65;82.74;102582.47;5034960;27;100831;-27
2023/09/24 07:36:17;;;;;;;5.40;1.52;;;;;;;13.68;81.35;102586.91;5035118;27;101693;-27
2023/09/24 07:38:43;;;;;;;1.95;1.05;;;;;;;13.77;82.30;102572.84;5035064;27;96653;-27
2023/09/24 07:41:09;;;;;;;2.05;1.23;;;;;;;13.84;82.21;102571.59;5053361;27;96838;-27
2023/09/24 07:43:39;;;;;;;3.20;1.48;;;;;;;13.99;80.54;102576.34;5035060;27;101224;-27
2023/09/24 07:46:06;;;;;;;2.92;1.63;;;;;;;14.12;80.54;102584.78;5035026;27;101401;-27
2023/09/24 07:48:32;;;;;;;2.45;1.08;;;;;;;14.20;80.23;102565.31;5034994;27;96742;-27
2023/09/24 07:50:57;;;;;;;2.63;1.55;;;;;;;14.40;80.61;102562.50;5053444;27;96795;-27
2023/09/24 07:53:23;;;;;;;1.45;0.93;;;;;;;14.42;78.93;102567.88;5052781;27;97570;-27
2023/09/24 07:55:56;;;;;;;2.70;1.40;;;;;;;14.54;78.03;102575.47;5034705;27;101022;-29
2023/09/24 07:58:23;;;;;;;2.40;1.20;;;;;;;14.54;79.35;102567.31;5053437;27;96651;-27
2023/09/24 08:00:48;;;;;;;1.73;1.02;;;;;;;14.70;78.49;102564.66;5053312;27;96826;-27
2023/09/24 08:03:14;;;;;;;2.15;1.08;;;;;;;14.81;78.37;102569.56;5052810;27;96784;-27
2023/09/24 08:05:39;;;;;;;3.30;1.30;;;;;;;14.90;78.14;102577.28;5052880;27;99699;-27
2023/09/24 08:08:05;;;;;;;2.03;1.23;;;;;;;14.97;77.18;102576.00;5034678;27;96623;-27
2023/09/24 08:10:30;;;;;;;1.65;1.00;;;;;;;15.07;77.16;102590.03;5053447;27;96835;-28
2023/09/24 08:12:55;;;;;;;2.72;1.00;;;;;;;15.18;76.46;102573.06;5053162;27;97931;-27
2023/09/24 08:15:21;;;;;;;2.45;1.23;;;;;;;15.16;75.49;102572.28;5052524;27;99499;-27
2023/09/24 08:17:46;;;;;;;3.40;1.27;;;;;;;15.28;76.50;102580.72;5052442;27;97849;-27
2023/09/24 08:20:12;;;;;;;3.60;1.55;;;;;;;15.48;76.97;102574.16;5052781;27;96872;-27
2023/09/24 08:22:37;;;;;;;2.17;1.27;;;;;;;15.47;75.79;102568.78;5052729;27;97428;-27
2023/09/24 08:25:02;;;;;;;4.43;1.20;;;;;;;15.55;75.00;102582.03;5052765;27;97471;-27
2023/09/24 08:27:28;;;;;;;3.03;1.33;;;;;;;15.65;74.44;102577.81;5052635;27;96544;-27
2023/09/24 08:29:53;;;;;;;3.78;1.50;;;;;;;15.67;75.12;102571.28;5052929;27;96818;-27
2023/09/24 08:32:19;;;;;;;2.60;1.20;;;;;;;15.73;74.89;102566.47;5034240;27;101275;-27
2023/09/24 08:34:44;;;;;;;4.93;1.20;;;;;;;15.85;75.31;102574.91;5052463;27;97857;-27
2023/09/24 08:37:09;;;;;;;4.28;1.48;;;;;;;16.01;74.55;102574.88;5052085;27;96751;-26
2023/09/24 08:39:35;;;;;;;5.13;1.67;;;;;;;16.10;73.58;102582.56;5052782;27;96900;-27
2023/09/24 08:42:02;;;;;;;2.97;1.30;;;;;;;16.12;74.01;102568.81;5033688;27;101468;-27
2023/09/24 08:44:29;;;;;;;2.40;1.30;;;;;;;16.13;73.12;102571.44;5034093;27;101005;-27
2023/09/24 08:46:55;;;;;;;2.08;1.20;;;;;;;16.24;73.23;102580.91;5033868;27;96995;-27
2023/09/24 08:49:21;;;;;;;3.28;1.05;;;;;;;16.30;72.51;102572.31;5052931;27;96798;-27
2023/09/24 08:51:47;;;;;;;3.22;1.02;;;;;;;16.36;71.89;102572.00;5033837;27;100824;-27
2023/09/24 08:54:13;;;;;;;2.22;1.02;;;;;;;16.49;72.33;102570.31;5033933;27;100998;-26
2023/09/24 08:56:39;;;;;;;2.50;1.08;;;;;;;16.62;72.13;102586.88;5034003;27;96570;-27
2023/09/24 08:59:05;;;;;;;3.30;0.95;;;;;;;16.70;72.11;102586.41;5052883;27;96901;-27
2023/09/24 09:01:31;;;;;;;2.35;1.10;;;;;;;16.77;72.78;102585.06;5052191;27;97900;-27
2023/09/24 09:03:57;;;;;;;2.28;0.50;;;;;;;16.85;70.80;102591.00;5033491;27;101608;-26
2023/09/24 09:06:35;;;;;;;2.08;0.73;;;;;;;16.78;69.16;102575.91;5033354;27;97118;-27
2023/09/24 09:09:00;;;;;;;1.92;0.80;;;;;;;16.86;70.18;102578.19;5033975;27;96955;-27
2023/09/24 09:11:39;;;;;;;3.83;0.80;;;;;;;16.88;70.99;102571.66;5051969;27;99290;-27
2023/09/24 09:14:04;;;;;;;1.45;0.55;;;;;;;16.87;69.96;102569.88;5052284;27;97870;-27
2023/09/24 09:16:29;;;;;;;1.70;0.63;;;;;;;16.90;70.27;102572.44;5051841;27;96704;-26
2023/09/24 09:19:02;;;;;;;2.47;0.70;;;;;;;16.94;70.20;102567.66;5051849;27;96882;-27
2023/09/24 09:21:28;;;;;;;2.75;0.75;;;;;;;16.87;66.98;102561.66;5051810;27;99474;-27
2023/09/24 09:23:53;;;;;;;1.20;0.70;;;;;;;16.95;70.54;102556.63;5052435;27;97838;-28
2023/09/24 09:26:26;;;;;;;1.05;0.63;;;;;;;17.09;67.72;102552.13;5052346;27;96476;-27
2023/09/24 09:28:52;;;;;;;1.83;0.95;;;;;;;17.17;69.58;102556.16;5033795;27;96687;-27
2023/09/24 09:31:17;;;;;;;1.45;0.52;;;;;;;17.27;67.63;102548.25;5032832;27;101408;-27
2023/09/24 09:33:44;;;;;;;4.60;0.90;;;;;;;17.36;68.04;102544.94;5051641;27;98777;-27
2023/09/24 09:36:22;;;;;;;3.63;0.80;;;;;;;17.53;67.50;102543.88;5033540;27;96787;-27
2023/09/24 09:38:47;;;;;;;1.20;0.60;;;;;;;17.62;66.76;102547.88;5051762;27;96824;-27
2023/09/24 09:41:16;;;;;;;1.65;0.88;;;;;;;17.71;67.65;102551.88;5051753;27;98080;-27
2023/09/24 09:43:42;;;;;;;1.13;0.52;;;;;;;17.77;67.49;102557.84;5033077;27;100675;-28
2023/09/24 09:46:10;;;;;;;2.03;0.80;;;;;;;17.95;67.00;102550.34;5016181;27;96815;-27
2023/09/24 09:48:37;;;;;;;1.55;0.68;;;;;;;18.02;66.42;102551.69;5055779;27;96760;-27
2023/09/24 09:51:07;;;;;;;3.00;0.90;;;;;;;18.12;65.72;102543.72;5036861;27;100926;-28
2023/09/24 09:53:34;;;;;;;1.85;0.82;;;;;;;18.18;66.04;102546.03;5055019;27;97921;-27
2023/09/24 09:56:07;;;;;;;1.90;0.90;;;;;;;18.31;64.29;102548.88;5036174;27;97249;-28
2023/09/24 09:58:38;;;;;;;4.32;1.05;;;;;;;18.40;65.69;102528.13;5036839;27;96841;-27
2023/09/24 10:01:05;;;;;;;1.70;0.67;;;;;;;18.60;64.90;102535.91;5036654;27;101043;-27
2023/09/24 10:03:37;;;;;;;1.88;0.68;;;;;;;18.74;63.49;102523.97;5036143;27;100936;-27
2023/09/24 10:06:05;;;;;;;1.75;0.55;;;;;;;18.84;64.60;102536.09;5036766;27;96746;-27
2023/09/24 10:08:40;;;;;;;5.45;1.38;;;;;;;18.86;63.41;102536.88;5036712;27;96983;-27
2023/09/24 10:11:08;;;;;;;2.88;0.85;;;;;;;18.98;62.40;102531.53;5036552;27;100994;-27
2023/09/24 10:14:08;;;;;;;5.47;1.27;;;;;;;18.96;62.59;102517.03;5035493;27;101115;-27
2023/09/24 10:16:38;;;;;;;2.33;0.57;;;;;;;18.86;61.98;102519.53;5028857;27;96796;-30
2023/09/24 10:19:03;;;;;;;2.60;0.80;;;;;;;18.93;63.12;102526.34;5052523;27;96936;-28
2023/09/24 10:21:36;;;;;;;2.25;1.17;;;;;;;19.02;62.42;102513.81;5053056;27;97485;-27
2023/09/24 10:24:14;;;;;;;4.72;1.02;;;;;;;18.98;59.34;102512.31;5053261;27;99086;-27
2023/09/24 10:27:06;;;;;;;5.07;0.85;;;;;;;19.03;59.40;102504.63;5032542;27;96773;-32
2023/09/24 10:29:44;;;;;;;;;;;;;;;19.06;58.99;102510.75;5054214;27;96782;-27
2023/09/24 10:32:17;;;;;;;1.75;0.68;;;;;;;19.05;59.48;102514.50;5035026;27;100617;-27
2023/09/24 10:34:52;;;;;;;1.70;1.20;;;;;;;19.26;60.65;102502.97;5053173;27;97883;-26
2023/09/24 10:37:57;;;;;;;3.25;0.80;;;;;;;19.43;59.13;102510.88;5052765;27;97210;-27
2023/09/24 10:40:26;;;;;;;4.03;0.80;;;;;;;19.43;59.55;102516.38;5052452;27;97260;-27
2023/09/24 10:43:11;;;;;;;1.52;0.60;;;;;;;19.52;59.52;102501.97;5052888;27;98988;-27
2023/09/24 10:45:37;;;;;;;2.65;0.80;;;;;;;19.64;59.33;102510.28;5034070;27;101092;-31
2023/09/24 10:48:03;;;;;;;3.67;0.70;;;;;;;19.90;59.66;102522.13;5052334;27;96633;-27
2023/09/24 10:50:28;;;;;;;4.18;1.27;;;;;;;20.09;58.77;102513.38;5052725;27;97076;-28
2023/09/24 10:52:59;;;;;;;2.00;0.73;;;;;;;20.22;58.99;102496.84;5052973;27;99407;-28
2023/09/24 10:55:28;;;;;;;1.47;0.87;;;;;;;20.44;58.01;102512.56;5033235;27;101209;-27
2023/09/24 10:57:54;;;;;;;2.13;0.82;;;;;;;20.55;58.70;102505.28;5051437;27;96949;-30
2023/09/24 11:00:21;;;;;;;4.93;1.52;;;;;;;20.63;57.29;102507.44;5033186;27;97063;-28
2023/09/24 11:03:06;;;;;;;2.90;0.85;;;;;;;20.63;54.43;102499.16;5051416;27;97119;-30
2023/09/24 11:05:42;;;;;;;1.25;0.60;;;;;;;20.73;54.98;102502.94;5051730;27;101487;-30
2023/09/24 11:08:08;;;;;;;4.13;0.80;;;;;;;20.74;55.82;102495.59;5033466;27;97153;-26
2023/09/24 11:10:34;;;;;;;4.07;0.95;;;;;;;20.69;51.98;102495.94;5035693;27;96907;-27
2023/09/24 11:13:03;;;;;;;2.13;0.80;;;;;;;20.59;52.66;102489.38;5035088;27;101046;-27
2023/09/24 11:15:33;;;;;;;1.35;0.68;;;;;;;20.58;55.06;102504.16;5035326;27;98741;-28
2023/09/24 11:17:59;;;;;;;1.48;0.57;;;;;;;20.56;55.30;102498.75;5054243;27;96533;-27
2023/09/24 11:20:28;;;;;;;5.40;1.88;;;;;;;20.67;54.42;102499.81;5035546;27;96901;-26
2023/09/24 11:22:59;;;;;;;3.13;1.10;;;;;;;20.70;55.13;102494.06;5035419;27;100985;-27
2023/09/24 11:25:26;;;;;;;1.20;0.70;;;;;;;20.76;54.65;102480.69;5035299;27;99431;-26